createdAt,value
2022-10-12T00:00:07.174Z,10.48
2022-10-12T00:01:09.112Z,10.82
2022-10-12T00:02:10.817Z,12.60
2022-10-12T00:03:13.341Z,10.32
2022-10-12T00:04:15.119Z,8.30
2022-10-12T00:05:16.808Z,11.00
2022-10-12T00:06:23.948Z,8.48
2022-10-12T00:07:25.570Z,18.42
2022-10-12T00:08:27.225Z,11.55
2022-10-12T00:09:28.828Z,10.40
2022-10-12T00:10:30.471Z,10.55
2022-10-12T00:11:32.077Z,9.38
2022-10-12T00:12:34.308Z,10.98
2022-10-12T00:13:36.180Z,8.90
2022-10-12T00:14:38.308Z,8.52
2022-10-12T00:15:41.115Z,8.27
2022-10-12T00:16:42.702Z,11.45
2022-10-12T00:17:44.302Z,12.07
2022-10-12T00:18:49.724Z,7.85
2022-10-12T00:19:51.351Z,9.38
2022-10-12T00:21:05.246Z,13.00
2022-10-12T00:22:06.949Z,11.02
2022-10-12T00:23:09.498Z,13.82
2022-10-12T00:24:11.209Z,12.70
2022-10-12T00:25:12.807Z,9.80
2022-10-12T00:26:17.741Z,14.68
2022-10-12T00:27:19.365Z,8.05
2022-10-12T00:28:20.964Z,10.02
2022-10-12T00:29:22.755Z,7.07
2022-10-12T00:30:24.361Z,6.40
2022-10-12T00:31:27.652Z,6.22
2022-10-12T00:32:29.328Z,5.50
2022-10-12T00:33:31.123Z,10.18
2022-10-12T00:34:32.889Z,8.10
2022-10-12T00:35:34.484Z,7.10
2022-10-12T00:36:36.382Z,7.53
2022-10-12T00:37:38.392Z,9.90
2022-10-12T00:38:40.359Z,8.80
2022-10-12T00:39:41.948Z,7.57
2022-10-12T00:40:43.531Z,8.82
2022-10-12T00:41:45.138Z,5.78
2022-10-12T00:42:49.058Z,3.97
2022-10-12T00:43:56.782Z,5.10
2022-10-12T00:45:00.053Z,6.43
2022-10-12T00:46:05.297Z,6.38
2022-10-12T00:47:41.081Z,4.25
2022-10-12T00:48:44.574Z,5.80
2022-10-12T00:49:50.773Z,7.55
2022-10-12T00:50:53.483Z,5.55
2022-10-12T00:52:02.674Z,8.15
2022-10-12T00:53:14.189Z,7.65
2022-10-12T00:54:21.290Z,5.97
2022-10-12T00:55:25.090Z,6.25
2022-10-12T00:56:29.786Z,5.63
2022-10-12T00:57:31.544Z,8.30
2022-10-12T00:58:33.692Z,5.88
2022-10-12T00:59:49.758Z,6.57
2022-10-12T01:00:51.757Z,9.23
2022-10-12T01:01:54.263Z,7.57
2022-10-12T01:02:56.116Z,9.20
2022-10-12T01:03:57.738Z,7.43
2022-10-12T01:05:00.681Z,4.93
2022-10-12T01:06:02.546Z,5.20
2022-10-12T01:07:04.143Z,7.85
2022-10-12T01:08:05.897Z,10.40
2022-10-12T01:09:07.664Z,7.07
2022-10-12T01:10:09.770Z,5.68
2022-10-12T01:11:11.624Z,7.47
2022-10-12T01:12:13.875Z,4.88
2022-10-12T01:13:15.658Z,7.50
2022-10-12T01:14:17.473Z,5.82
2022-10-12T01:15:19.153Z,7.03
2022-10-12T01:16:43.646Z,7.93
2022-10-12T01:17:59.983Z,6.10
2022-10-12T01:19:52.660Z,5.78
2022-10-12T01:21:16.931Z,3.92
2022-10-12T01:22:20.890Z,5.40
2022-10-12T01:24:04.832Z,3.40
2022-10-12T01:25:15.104Z,3.63
2022-10-12T01:26:53.165Z,2.97
2022-10-12T01:28:09.987Z,3.40
2022-10-12T01:29:33.665Z,3.50
2022-10-12T01:30:41.054Z,3.85
2022-10-12T01:32:09.262Z,3.45
2022-10-12T01:33:16.413Z,3.90
2022-10-12T01:34:39.776Z,3.70
2022-10-12T01:36:06.781Z,3.65
2022-10-12T01:37:40.614Z,3.30
2022-10-12T01:38:59.687Z,5.10
2022-10-12T01:40:07.511Z,3.72
2022-10-12T01:41:30.213Z,3.50
2022-10-12T01:42:36.975Z,4.45
2022-10-12T01:43:41.702Z,5.28
2022-10-12T01:44:43.374Z,4.47
2022-10-12T01:45:45.406Z,6.55
2022-10-12T01:46:47.184Z,8.32
2022-10-12T01:47:52.675Z,5.05
2022-10-12T01:48:58.009Z,6.90
2022-10-12T01:50:02.278Z,4.20
2022-10-12T01:51:04.110Z,5.50
2022-10-12T01:52:24.683Z,6.20
2022-10-12T01:53:42.271Z,6.88
2022-10-12T01:55:05.603Z,6.50
2022-10-12T01:56:39.352Z,8.20
2022-10-12T01:58:03.392Z,4.63
2022-10-12T01:59:15.461Z,5.97
2022-10-12T02:00:18.100Z,8.57
2022-10-12T02:01:55.150Z,15.52
2022-10-12T02:03:02.662Z,17.45
2022-10-12T02:04:13.742Z,19.27
2022-10-12T02:05:35.010Z,16.33
2022-10-12T02:06:51.411Z,29.25
2022-10-12T02:08:13.712Z,18.17
2022-10-12T02:09:22.029Z,17.45
2022-10-12T02:10:29.384Z,23.48
2022-10-12T02:11:34.062Z,20.00
2022-10-12T02:12:37.336Z,10.38
2022-10-12T02:13:44.992Z,16.45
2022-10-12T02:14:52.039Z,19.02
2022-10-12T02:15:54.627Z,13.77
2022-10-12T02:16:59.742Z,12.15
2022-10-12T02:18:04.368Z,9.95
2022-10-12T02:19:09.807Z,8.82
2022-10-12T02:20:16.036Z,16.42
2022-10-12T02:21:22.671Z,11.55
2022-10-12T02:22:30.186Z,16.38
2022-10-12T02:23:32.158Z,12.98
2022-10-12T02:24:36.832Z,21.60
2022-10-12T02:25:39.466Z,18.55
2022-10-12T02:26:43.956Z,21.40
2022-10-12T02:27:52.173Z,13.23
2022-10-12T02:28:54.243Z,9.88
2022-10-12T02:29:56.051Z,10.27
2022-10-12T02:31:21.078Z,11.80
2022-10-12T02:32:46.205Z,14.48
2022-10-12T02:34:02.669Z,13.20
2022-10-12T02:35:10.363Z,14.30
2022-10-12T02:36:18.492Z,18.02
2022-10-12T02:38:01.249Z,41.65
2022-10-12T02:39:14.634Z,45.60
2022-10-12T02:40:24.247Z,26.85
2022-10-12T02:41:33.465Z,21.60
2022-10-12T02:43:08.411Z,16.40
2022-10-12T02:44:04.102Z,15.02
2022-10-12T02:45:09.628Z,18.30
2022-10-12T02:46:12.226Z,31.05
2022-10-12T02:47:16.560Z,18.27
2022-10-12T02:48:22.491Z,18.63
2022-10-12T02:49:26.545Z,10.65
2022-10-12T02:50:29.541Z,26.65
2022-10-12T02:51:32.938Z,15.90
2022-10-12T02:52:34.939Z,11.60
2022-10-12T02:53:37.113Z,11.98
2022-10-12T02:54:40.218Z,20.40
2022-10-12T02:56:00.744Z,6.80
2022-10-12T02:57:02.522Z,11.38
2022-10-12T02:58:04.155Z,12.32
2022-10-12T02:59:05.796Z,12.85
2022-10-12T03:00:08.367Z,20.42
2022-10-12T03:01:10.516Z,16.70
2022-10-12T03:02:12.287Z,23.77
2022-10-12T03:03:13.993Z,12.48
2022-10-12T03:04:16.157Z,7.25
2022-10-12T03:05:17.861Z,7.07
2022-10-12T03:06:20.286Z,8.20
2022-10-12T03:07:22.005Z,6.55
2022-10-12T03:08:23.715Z,12.90
2022-10-12T03:09:25.433Z,11.55
2022-10-12T03:10:27.253Z,12.27
2022-10-12T03:11:28.970Z,17.90
2022-10-12T03:12:30.649Z,9.40
2022-10-12T03:13:32.709Z,9.38
2022-10-12T03:14:35.143Z,7.95
2022-10-12T03:15:36.814Z,10.15
2022-10-12T03:16:38.472Z,12.90
2022-10-12T03:17:40.478Z,12.07
2022-10-12T03:18:42.263Z,11.48
2022-10-12T03:19:44.007Z,6.75
2022-10-12T03:20:49.043Z,12.40
2022-10-12T03:21:50.727Z,11.45
2022-10-12T03:22:52.523Z,16.13
2022-10-12T03:23:54.205Z,8.30
2022-10-12T03:24:56.821Z,12.45
2022-10-12T03:25:58.452Z,11.90
2022-10-12T03:27:00.418Z,10.77
2022-10-12T03:28:02.118Z,7.40
2022-10-12T03:29:04.542Z,9.25
2022-10-12T03:30:06.639Z,11.95
2022-10-12T03:31:08.265Z,12.25
2022-10-12T03:32:09.860Z,13.32
2022-10-12T03:33:11.920Z,12.40
2022-10-12T03:34:13.552Z,8.30
2022-10-12T03:35:15.989Z,7.30
2022-10-12T03:36:17.920Z,9.50
2022-10-12T03:37:19.545Z,10.68
2022-10-12T03:38:21.641Z,7.20
2022-10-12T03:39:23.236Z,12.32
2022-10-12T03:40:24.851Z,17.27
2022-10-12T03:41:26.431Z,13.75
2022-10-12T03:42:28.071Z,12.75
2022-10-12T03:43:29.716Z,13.02
2022-10-12T03:44:31.316Z,19.60
2022-10-12T03:45:33.133Z,19.65
2022-10-12T03:46:34.722Z,17.33
2022-10-12T03:47:37.969Z,15.90
2022-10-12T03:48:39.883Z,14.27
2022-10-12T03:49:41.559Z,14.70
2022-10-12T03:50:47.780Z,11.52
2022-10-12T03:51:49.433Z,12.48
2022-10-12T03:52:51.059Z,15.90
2022-10-12T03:53:52.660Z,14.40
2022-10-12T03:54:54.270Z,11.02
2022-10-12T03:55:55.920Z,11.77
2022-10-12T03:56:57.562Z,10.07
2022-10-12T03:57:59.462Z,12.90
2022-10-12T03:59:01.159Z,13.23
2022-10-12T04:00:03.541Z,13.13
2022-10-12T04:01:05.287Z,8.32
2022-10-12T04:02:06.920Z,11.25
2022-10-12T04:03:08.528Z,9.50
2022-10-12T04:04:11.357Z,6.70
2022-10-12T04:05:13.000Z,10.48
2022-10-12T04:06:14.660Z,11.38
2022-10-12T04:07:16.346Z,8.57
2022-10-12T04:08:17.968Z,12.48
2022-10-12T04:09:19.589Z,15.15
2022-10-12T04:10:21.675Z,14.40
2022-10-12T04:11:23.385Z,15.60
2022-10-12T04:12:25.038Z,12.43
2022-10-12T04:13:26.636Z,12.82
2022-10-12T04:14:28.263Z,10.73
2022-10-12T04:15:29.874Z,12.88
2022-10-12T04:16:31.488Z,11.88
2022-10-12T04:17:33.112Z,12.52
2022-10-12T04:18:35.080Z,9.18
2022-10-12T04:19:36.693Z,13.15
2022-10-12T04:20:38.345Z,10.73
2022-10-12T04:21:40.025Z,12.68
2022-10-12T04:22:41.707Z,9.18
2022-10-12T04:23:43.608Z,12.43
2022-10-12T04:24:45.250Z,13.77
2022-10-12T04:25:47.153Z,12.25
2022-10-12T04:26:48.971Z,9.13
2022-10-12T04:27:51.211Z,13.85
2022-10-12T04:28:52.849Z,10.48
2022-10-12T04:29:54.621Z,13.30
2022-10-12T04:30:56.217Z,15.27
2022-10-12T04:31:57.868Z,18.02
2022-10-12T04:32:59.484Z,10.70
2022-10-12T04:34:01.282Z,10.15
2022-10-12T04:35:03.000Z,12.38
2022-10-12T04:36:04.722Z,14.07
2022-10-12T04:37:06.683Z,12.18
2022-10-12T04:38:08.301Z,19.27
2022-10-12T04:39:09.910Z,18.63
2022-10-12T04:40:11.757Z,12.90
2022-10-12T04:41:13.373Z,15.45
2022-10-12T04:42:14.959Z,17.08
2022-10-12T04:43:17.382Z,19.35
2022-10-12T04:44:18.980Z,16.42
2022-10-12T04:45:20.654Z,16.60
2022-10-12T04:46:22.326Z,12.65
2022-10-12T04:47:24.602Z,14.32
2022-10-12T04:48:27.055Z,12.75
2022-10-12T04:49:28.878Z,19.20
2022-10-12T04:50:30.682Z,19.38
2022-10-12T04:51:32.261Z,17.00
2022-10-12T04:52:33.995Z,21.65
2022-10-12T04:53:35.725Z,10.48
2022-10-12T04:54:37.354Z,11.05
2022-10-12T04:55:38.956Z,8.50
2022-10-12T04:56:44.184Z,18.85
2022-10-12T04:57:49.974Z,15.73
2022-10-12T04:58:51.570Z,13.45
2022-10-12T04:59:53.184Z,9.63
2022-10-12T05:00:54.834Z,11.15
2022-10-12T05:01:56.600Z,10.48
2022-10-12T05:02:58.243Z,12.13
2022-10-12T05:04:00.366Z,11.75
2022-10-12T05:05:02.152Z,10.95
2022-10-12T05:06:03.908Z,11.70
2022-10-12T05:07:05.577Z,11.60
2022-10-12T05:08:07.436Z,11.63
2022-10-12T05:09:13.123Z,12.48
2022-10-12T05:10:18.152Z,12.18
2022-10-12T05:11:19.821Z,13.80
2022-10-12T05:12:21.425Z,15.70
2022-10-12T05:13:23.056Z,20.15
2022-10-12T05:14:24.715Z,16.45
2022-10-12T05:15:26.455Z,15.52
2022-10-12T05:16:28.098Z,16.02
2022-10-12T05:17:29.748Z,13.38
2022-10-12T05:18:31.599Z,14.13
2022-10-12T05:19:33.214Z,9.88
2022-10-12T05:20:35.696Z,10.20
2022-10-12T05:21:37.540Z,18.20
2022-10-12T05:22:39.176Z,17.65
2022-10-12T05:23:41.011Z,19.33
2022-10-12T05:24:42.715Z,13.25
2022-10-12T05:25:44.304Z,12.18
2022-10-12T05:26:45.927Z,13.40
2022-10-12T05:27:47.575Z,15.55
2022-10-12T05:28:49.243Z,15.25
2022-10-12T05:29:50.910Z,15.48
2022-10-12T05:30:53.026Z,23.30
2022-10-12T05:31:54.780Z,16.73
2022-10-12T05:32:56.657Z,17.58
2022-10-12T05:33:58.254Z,20.88
2022-10-12T05:34:59.976Z,18.25
2022-10-12T05:36:01.593Z,19.08
2022-10-12T05:37:03.226Z,22.73
2022-10-12T05:38:04.859Z,19.23
2022-10-12T05:39:06.571Z,25.30
2022-10-12T05:40:08.517Z,14.85
2022-10-12T05:41:10.271Z,19.95
2022-10-12T05:42:11.952Z,22.95
2022-10-12T05:43:13.582Z,31.98
2022-10-12T05:44:15.170Z,18.70
2022-10-12T05:45:17.022Z,18.20
2022-10-12T05:46:18.604Z,24.55
2022-10-12T05:47:20.273Z,21.25
2022-10-12T05:48:21.929Z,23.08
2022-10-12T05:49:23.572Z,25.08
2022-10-12T05:50:25.208Z,19.27
2022-10-12T05:51:29.093Z,23.30
2022-10-12T05:52:31.285Z,15.77
2022-10-12T05:53:32.869Z,16.88
2022-10-12T05:54:34.459Z,15.10
2022-10-12T05:55:36.054Z,18.73
2022-10-12T05:56:37.725Z,19.08
2022-10-12T05:57:39.703Z,18.00
2022-10-12T05:58:42.172Z,16.60
2022-10-12T05:59:43.797Z,13.55
2022-10-12T06:00:45.436Z,19.70
2022-10-12T06:01:47.174Z,19.58
2022-10-12T06:02:49.201Z,17.85
2022-10-12T06:03:51.497Z,13.63
2022-10-12T06:04:53.461Z,15.25
2022-10-12T06:05:55.403Z,14.57
2022-10-12T06:06:57.044Z,18.83
2022-10-12T06:07:58.657Z,18.55
2022-10-12T06:09:00.412Z,15.93
2022-10-12T06:10:02.244Z,12.45
2022-10-12T06:11:04.522Z,13.45
2022-10-12T06:12:09.170Z,13.30
2022-10-12T06:13:10.776Z,11.85
2022-10-12T06:14:12.476Z,16.38
2022-10-12T06:15:14.140Z,24.75
2022-10-12T06:16:15.794Z,45.50
2022-10-12T06:17:17.453Z,41.15
2022-10-12T06:18:19.523Z,32.00
2022-10-12T06:19:21.414Z,47.20
2022-10-12T06:20:22.993Z,21.08
2022-10-12T06:21:39.992Z,22.65
2022-10-12T06:22:41.711Z,20.02
2022-10-12T06:23:43.578Z,20.30
2022-10-12T06:24:45.177Z,15.20
2022-10-12T06:25:48.477Z,17.90
2022-10-12T06:26:50.183Z,15.15
2022-10-12T06:27:51.775Z,20.08
2022-10-12T06:28:53.439Z,18.88
2022-10-12T06:29:55.062Z,18.42
2022-10-12T06:30:59.230Z,13.57
2022-10-12T06:32:00.847Z,11.10
2022-10-12T06:33:02.499Z,21.92
2022-10-12T06:34:04.138Z,15.80
2022-10-12T06:35:06.263Z,15.68
2022-10-12T06:36:08.065Z,13.98
2022-10-12T06:37:20.401Z,15.68
2022-10-12T06:38:31.249Z,31.00
2022-10-12T06:39:32.883Z,17.65
2022-10-12T06:40:34.510Z,16.92
2022-10-12T06:41:36.204Z,22.42
2022-10-12T06:42:38.073Z,16.25
2022-10-12T06:43:39.883Z,12.90
2022-10-12T06:44:41.498Z,20.98
2022-10-12T06:45:43.115Z,22.98
2022-10-12T06:46:44.787Z,16.40
2022-10-12T06:47:46.408Z,14.35
2022-10-12T06:48:48.080Z,17.85
2022-10-12T06:49:49.746Z,13.43
2022-10-12T06:50:51.353Z,15.00
2022-10-12T06:51:52.965Z,10.70
2022-10-12T06:52:54.683Z,20.52
2022-10-12T06:53:56.710Z,21.02
2022-10-12T06:54:58.371Z,12.93
2022-10-12T06:56:00.007Z,15.18
2022-10-12T06:57:01.604Z,11.20
2022-10-12T06:58:03.273Z,19.33
2022-10-12T06:59:04.990Z,9.02
2022-10-12T07:00:08.004Z,12.50
2022-10-12T07:01:10.720Z,11.10
2022-10-12T07:02:12.502Z,12.00
2022-10-12T07:03:14.467Z,11.10
2022-10-12T07:04:17.588Z,17.38
2022-10-12T07:05:20.989Z,13.45
2022-10-12T07:06:22.605Z,10.50
2022-10-12T07:07:24.243Z,14.75
2022-10-12T07:08:25.850Z,13.80
2022-10-12T07:09:27.573Z,14.65
2022-10-12T07:10:29.213Z,16.92
2022-10-12T07:11:30.775Z,12.23
2022-10-12T07:12:32.579Z,13.93
2022-10-12T07:13:34.546Z,15.27
2022-10-12T07:14:36.158Z,9.43
2022-10-12T07:15:37.759Z,17.25
2022-10-12T07:16:39.379Z,17.58
2022-10-12T07:17:41.293Z,13.93
2022-10-12T07:18:43.125Z,19.98
2022-10-12T07:19:44.708Z,11.63
2022-10-12T07:20:46.415Z,17.48
2022-10-12T07:21:48.025Z,10.82
2022-10-12T07:22:49.670Z,18.65
2022-10-12T07:23:52.125Z,20.08
2022-10-12T07:24:53.830Z,13.27
2022-10-12T07:25:55.440Z,18.77
2022-10-12T07:26:57.044Z,15.90
2022-10-12T07:27:58.641Z,13.35
2022-10-12T07:29:02.152Z,25.75
2022-10-12T07:30:04.807Z,25.00
2022-10-12T07:31:09.559Z,9.88
2022-10-12T07:32:11.138Z,19.88
2022-10-12T07:33:12.979Z,17.60
2022-10-12T07:34:14.544Z,16.33
2022-10-12T07:35:16.232Z,17.38
2022-10-12T07:36:21.558Z,12.45
2022-10-12T07:37:23.701Z,12.93
2022-10-12T07:38:25.301Z,16.48
2022-10-12T07:39:27.123Z,17.63
2022-10-12T07:40:29.575Z,20.20
2022-10-12T07:41:31.229Z,9.73
2022-10-12T07:42:33.050Z,15.65
2022-10-12T07:43:34.676Z,14.90
2022-10-12T07:44:36.293Z,13.77
2022-10-12T07:45:37.863Z,19.63
2022-10-12T07:46:39.660Z,13.00
2022-10-12T07:47:41.536Z,12.90
2022-10-12T07:48:48.898Z,14.02
2022-10-12T07:49:51.831Z,14.93
2022-10-12T07:50:53.474Z,13.60
2022-10-12T07:51:55.191Z,10.60
2022-10-12T07:52:57.944Z,13.10
2022-10-12T07:54:00.205Z,11.48
2022-10-12T07:55:01.900Z,17.75
2022-10-12T07:56:14.766Z,15.45
2022-10-12T07:57:16.585Z,10.55
2022-10-12T07:58:18.194Z,12.05
2022-10-12T07:59:19.824Z,17.35
2022-10-12T08:00:22.111Z,13.57
2022-10-12T08:01:26.537Z,15.13
2022-10-12T08:02:28.189Z,13.95
2022-10-12T08:03:29.776Z,18.38
2022-10-12T08:04:31.403Z,13.73
2022-10-12T08:05:33.104Z,16.50
2022-10-12T08:06:34.779Z,12.05
2022-10-12T08:07:36.893Z,14.40
2022-10-12T08:08:39.285Z,14.43
2022-10-12T08:09:41.037Z,12.65
2022-10-12T08:10:42.781Z,17.65
2022-10-12T08:11:44.686Z,13.95
2022-10-12T08:12:51.168Z,11.43
2022-10-12T08:13:53.965Z,13.23
2022-10-12T08:14:55.551Z,10.35
2022-10-12T08:15:57.140Z,13.95
2022-10-12T08:16:59.078Z,16.25
2022-10-12T08:18:00.759Z,13.90
2022-10-12T08:19:02.376Z,13.35
2022-10-12T08:20:04.863Z,14.55
2022-10-12T08:21:08.399Z,10.77
2022-10-12T08:22:11.877Z,15.57
2022-10-12T08:23:13.499Z,11.40
2022-10-12T08:24:15.118Z,23.70
2022-10-12T08:25:16.706Z,14.20
2022-10-12T08:26:18.379Z,16.38
2022-10-12T08:27:19.988Z,13.45
2022-10-12T08:28:22.463Z,10.57
2022-10-12T08:29:24.162Z,14.77
2022-10-12T08:30:26.913Z,15.73
2022-10-12T08:31:28.665Z,19.08
2022-10-12T08:32:32.001Z,12.25
2022-10-12T08:33:33.649Z,16.90
2022-10-12T08:34:35.294Z,12.70
2022-10-12T08:35:41.143Z,14.70
2022-10-12T08:36:42.768Z,13.23
2022-10-12T08:37:44.386Z,12.02
2022-10-12T08:38:53.756Z,15.50
2022-10-12T08:39:58.546Z,14.45
2022-10-12T08:41:33.593Z,16.70
2022-10-12T08:42:56.500Z,14.07
2022-10-12T08:44:21.188Z,17.05
2022-10-12T08:45:37.897Z,13.60
2022-10-12T08:46:39.752Z,10.30
2022-10-12T08:47:43.945Z,11.43
2022-10-12T08:48:51.573Z,12.77
2022-10-12T08:49:54.400Z,12.25
2022-10-12T08:51:11.083Z,14.77
2022-10-12T08:52:29.814Z,15.80
2022-10-12T08:53:44.898Z,11.27
2022-10-12T08:54:46.528Z,21.80
2022-10-12T08:55:48.546Z,12.73
2022-10-12T08:56:53.998Z,12.82
2022-10-12T08:57:55.712Z,11.35
2022-10-12T08:58:57.377Z,12.88
2022-10-12T08:59:59.512Z,14.32
2022-10-12T09:01:43.520Z,14.60
2022-10-12T09:03:15.697Z,13.30
2022-10-12T09:04:43.638Z,12.23
2022-10-12T09:05:59.345Z,17.60
2022-10-12T09:07:17.206Z,11.52
2022-10-12T09:08:40.932Z,11.30
2022-10-12T09:10:19.599Z,15.60
2022-10-12T09:11:55.009Z,14.98
2022-10-12T09:13:24.070Z,13.00
2022-10-12T09:14:33.802Z,11.30
2022-10-12T09:15:40.967Z,14.18
2022-10-12T09:16:48.517Z,11.93
2022-10-12T09:17:55.351Z,9.00
2022-10-12T09:19:01.529Z,10.13
2022-10-12T09:20:10.621Z,10.95
2022-10-12T09:21:17.821Z,10.10
2022-10-12T09:22:20.202Z,10.40
2022-10-12T09:23:32.063Z,13.48
2022-10-12T09:24:36.314Z,16.17
2022-10-12T09:25:38.975Z,14.73
2022-10-12T09:26:40.565Z,14.38
2022-10-12T09:27:45.359Z,14.20
2022-10-12T09:28:57.011Z,14.77
2022-10-12T09:30:01.163Z,16.77
2022-10-12T09:31:31.600Z,11.40
2022-10-12T09:32:42.494Z,20.07
2022-10-12T09:33:53.295Z,13.63
2022-10-12T09:34:55.302Z,7.60
2022-10-12T09:35:57.791Z,8.03
2022-10-12T09:37:02.991Z,9.23
2022-10-12T09:38:06.196Z,14.57
2022-10-12T09:39:15.696Z,10.30
2022-10-12T09:40:28.380Z,10.50
2022-10-12T09:41:34.590Z,12.83
2022-10-12T09:42:37.261Z,13.33
2022-10-12T09:43:39.769Z,11.50
2022-10-12T09:44:48.643Z,12.60
2022-10-12T09:45:50.667Z,10.70
2022-10-12T09:47:02.317Z,10.43
2022-10-12T09:48:16.100Z,9.27
2022-10-12T09:49:17.778Z,6.80
2022-10-12T09:50:41.932Z,10.80
2022-10-12T09:51:44.547Z,7.57
2022-10-12T09:52:46.314Z,10.27
2022-10-12T09:53:52.028Z,14.90
2022-10-12T09:55:02.538Z,10.20
2022-10-12T09:56:27.435Z,10.57
2022-10-12T09:57:34.259Z,8.47
2022-10-12T09:58:49.410Z,8.40
2022-10-12T09:59:51.864Z,19.70
2022-10-12T10:01:16.463Z,6.77
2022-10-12T10:02:21.131Z,10.03
2022-10-12T10:03:29.149Z,8.70
2022-10-12T10:04:33.768Z,11.03
2022-10-12T10:05:37.986Z,10.93
2022-10-12T10:06:42.877Z,9.63
2022-10-12T10:07:44.495Z,16.43
2022-10-12T10:08:46.124Z,12.53
2022-10-12T10:10:02.658Z,8.27
2022-10-12T10:11:04.545Z,8.57
2022-10-12T10:12:21.730Z,12.20
2022-10-12T10:13:28.089Z,10.80
2022-10-12T10:14:35.636Z,6.63
2022-10-12T10:15:41.191Z,14.20
2022-10-12T10:16:51.227Z,12.93
2022-10-12T10:17:56.832Z,11.80
2022-10-12T10:19:02.865Z,8.77
2022-10-12T10:20:07.650Z,12.03
2022-10-12T10:21:14.520Z,13.90
2022-10-12T10:22:16.593Z,10.87
2022-10-12T10:23:39.221Z,11.47
2022-10-12T10:24:40.891Z,9.80
2022-10-12T10:25:42.617Z,13.80
2022-10-12T10:26:55.060Z,11.70
2022-10-12T10:28:33.507Z,11.90
2022-10-12T10:29:40.672Z,11.73
2022-10-12T10:30:42.773Z,11.90
2022-10-12T10:31:46.413Z,13.10
2022-10-12T10:32:48.779Z,11.80
2022-10-12T10:34:07.310Z,10.83
2022-10-12T10:35:11.950Z,13.57
2022-10-12T10:36:23.147Z,19.13
2022-10-12T10:37:24.863Z,13.87
2022-10-12T10:38:27.114Z,11.87
2022-10-12T10:39:33.040Z,10.10
2022-10-12T10:40:34.772Z,14.00
2022-10-12T10:41:39.879Z,21.10
2022-10-12T10:42:41.515Z,11.00
2022-10-12T10:43:46.865Z,11.13
2022-10-12T10:44:51.280Z,13.07
2022-10-12T10:45:56.482Z,9.00
2022-10-12T10:47:09.096Z,11.67
2022-10-12T10:48:17.192Z,7.83
2022-10-12T10:49:35.253Z,14.73
2022-10-12T10:50:41.060Z,11.63
2022-10-12T10:51:57.684Z,13.60
2022-10-12T10:53:02.480Z,8.43
2022-10-12T10:54:25.713Z,12.57
2022-10-12T10:55:41.842Z,17.80
2022-10-12T10:56:44.297Z,11.97
2022-10-12T10:58:00.855Z,12.00
2022-10-12T10:59:16.586Z,12.60
2022-10-12T11:00:40.209Z,18.73
2022-10-12T11:01:54.163Z,17.83
2022-10-12T11:02:57.921Z,8.37
2022-10-12T11:04:01.999Z,10.20
2022-10-12T11:05:25.249Z,6.63
2022-10-12T11:06:42.259Z,10.70
2022-10-12T11:07:58.587Z,9.80
2022-10-12T11:09:06.770Z,12.10
2022-10-12T11:10:33.864Z,12.70
2022-10-12T11:11:38.310Z,24.77
2022-10-12T11:12:46.102Z,14.97
2022-10-12T11:14:11.316Z,10.73
2022-10-12T11:15:23.617Z,9.10
2022-10-12T11:16:40.472Z,14.30
2022-10-12T11:17:47.062Z,9.50
2022-10-12T11:19:01.866Z,12.83
2022-10-12T11:20:24.993Z,7.93
2022-10-12T11:21:38.722Z,7.47
2022-10-12T11:22:54.343Z,13.73
2022-10-12T11:24:12.512Z,11.80
2022-10-12T11:25:39.852Z,10.70
2022-10-12T11:26:48.115Z,8.60
2022-10-12T11:27:53.753Z,9.13
2022-10-12T11:28:59.764Z,19.23
2022-10-12T11:30:10.395Z,7.70
2022-10-12T11:31:32.487Z,9.67
2022-10-12T11:32:56.974Z,22.47
2022-10-12T11:34:03.308Z,12.13
2022-10-12T11:35:07.596Z,5.73
2022-10-12T11:36:14.635Z,12.10
2022-10-12T11:37:21.211Z,14.57
2022-10-12T11:38:38.276Z,8.67
2022-10-12T11:39:45.033Z,9.73
2022-10-12T11:41:09.170Z,13.70
2022-10-12T11:42:28.345Z,11.80
2022-10-12T11:44:00.358Z,11.43
2022-10-12T11:45:06.656Z,12.00
2022-10-12T11:46:14.414Z,9.80
2022-10-12T11:47:38.164Z,12.10
2022-10-12T11:48:58.306Z,17.00
2022-10-12T11:50:05.490Z,11.67
2022-10-12T11:51:07.548Z,9.13
2022-10-12T11:52:11.417Z,6.93
2022-10-12T11:53:40.229Z,9.00
2022-10-12T11:55:02.769Z,17.77
2022-10-12T11:56:19.460Z,12.63
2022-10-12T11:57:31.227Z,13.60
2022-10-12T11:58:59.513Z,10.67
2022-10-12T12:00:19.371Z,9.00
2022-10-12T12:01:23.757Z,8.90
2022-10-12T12:02:39.298Z,5.80
2022-10-12T12:03:43.540Z,9.33
2022-10-12T12:04:47.925Z,12.23
2022-10-12T12:05:49.978Z,9.03
2022-10-12T12:06:57.858Z,9.10
2022-10-12T12:07:59.549Z,10.03
2022-10-12T12:09:01.211Z,12.20
2022-10-12T12:10:25.372Z,8.80
2022-10-12T12:11:30.276Z,6.43
2022-10-12T12:12:31.922Z,7.23
2022-10-12T12:13:33.840Z,7.27
2022-10-12T12:14:53.567Z,5.73
2022-10-12T12:15:55.121Z,10.00
2022-10-12T12:17:35.849Z,8.30
2022-10-12T12:19:11.715Z,5.53
2022-10-12T12:20:44.105Z,6.93
2022-10-12T12:22:29.134Z,13.53
2022-10-12T12:23:41.847Z,6.00
2022-10-12T12:25:10.734Z,8.70
2022-10-12T12:26:16.528Z,7.70
2022-10-12T12:27:32.372Z,5.43
2022-10-12T12:28:34.404Z,10.93
2022-10-12T12:29:36.283Z,5.73
2022-10-12T12:30:39.924Z,4.00
2022-10-12T12:31:41.661Z,4.47
2022-10-12T12:32:55.890Z,3.60
2022-10-12T12:34:13.793Z,4.10
2022-10-12T12:35:38.520Z,4.27
2022-10-12T12:36:46.233Z,5.67
2022-10-12T12:37:48.796Z,4.47
2022-10-12T12:38:51.743Z,7.40
2022-10-12T12:39:56.499Z,8.33
2022-10-12T12:41:03.079Z,3.73
2022-10-12T12:42:09.399Z,5.97
2022-10-12T12:43:29.279Z,2.77
2022-10-12T12:44:43.017Z,4.47
2022-10-12T12:46:08.176Z,2.83
2022-10-12T12:48:43.471Z,7.00
2022-10-12T12:49:50.257Z,6.37
2022-10-12T12:50:59.665Z,4.03
2022-10-12T12:52:01.579Z,6.93
2022-10-12T12:53:08.328Z,5.97
2022-10-12T12:54:17.741Z,4.10
2022-10-12T12:55:43.040Z,4.30
2022-10-12T12:56:52.796Z,7.60
2022-10-12T12:58:15.913Z,5.10
2022-10-12T12:59:42.514Z,7.40
2022-10-12T13:01:09.444Z,3.67
2022-10-12T13:02:35.788Z,4.93
2022-10-12T13:03:43.032Z,10.27
2022-10-12T13:05:03.235Z,6.97
2022-10-12T13:06:42.440Z,3.30
2022-10-12T13:07:47.261Z,3.60
2022-10-12T13:09:16.850Z,6.60
2022-10-12T13:10:26.360Z,3.50
2022-10-12T13:11:39.768Z,6.53
2022-10-12T13:13:00.243Z,6.33
2022-10-12T13:14:22.942Z,9.90
2022-10-12T13:15:36.308Z,3.93
2022-10-12T13:18:46.916Z,5.17
2022-10-12T13:19:49.626Z,7.87
2022-10-12T13:20:51.638Z,5.57
2022-10-12T13:21:55.525Z,3.27
2022-10-12T13:22:59.086Z,6.00
2022-10-12T13:24:44.244Z,5.20
2022-10-12T13:26:09.591Z,3.50
2022-10-12T13:27:22.928Z,3.43
2022-10-12T13:28:31.587Z,5.47
2022-10-12T13:29:54.049Z,7.80
2022-10-12T13:31:21.529Z,5.20
2022-10-12T13:32:30.436Z,5.90
2022-10-12T13:34:06.776Z,4.87
2022-10-12T13:35:18.785Z,5.03
2022-10-12T13:36:25.632Z,6.20
2022-10-12T13:37:31.889Z,13.83
2022-10-12T13:38:35.733Z,6.63
2022-10-12T13:39:44.650Z,4.33
2022-10-12T13:41:02.409Z,6.87
2022-10-12T13:42:04.312Z,4.50
2022-10-12T13:43:38.126Z,8.40
2022-10-12T13:44:41.988Z,8.47
2022-10-12T13:45:47.941Z,3.33
2022-10-12T13:46:52.554Z,5.77
2022-10-12T13:48:04.508Z,8.37
2022-10-12T13:49:20.254Z,6.60
2022-10-12T13:50:22.017Z,5.60
2022-10-12T13:51:29.747Z,4.73
2022-10-12T13:52:34.014Z,6.63
2022-10-12T13:53:37.912Z,4.30
2022-10-12T13:54:43.819Z,9.20
2022-10-12T13:56:30.046Z,9.80
2022-10-12T13:57:39.078Z,4.93
2022-10-12T13:58:41.094Z,5.40
2022-10-12T13:59:42.991Z,4.37
2022-10-12T14:00:48.329Z,7.03
2022-10-12T14:02:00.965Z,3.50
2022-10-12T14:03:08.521Z,9.40
2022-10-12T14:04:10.766Z,3.13
2022-10-12T14:05:22.190Z,4.27
2022-10-12T14:06:31.896Z,12.83
2022-10-12T14:07:39.328Z,7.20
2022-10-12T14:08:41.053Z,8.63
2022-10-12T14:09:47.851Z,7.63
2022-10-12T14:10:49.889Z,5.20
2022-10-12T14:11:54.443Z,6.27
2022-10-12T14:12:56.953Z,4.70
2022-10-12T14:13:58.895Z,4.00
2022-10-12T14:15:01.305Z,5.33
2022-10-12T14:16:05.152Z,7.37
2022-10-12T14:17:07.249Z,6.77
2022-10-12T14:18:35.830Z,10.17
2022-10-12T14:19:40.492Z,5.40
2022-10-12T14:20:42.179Z,4.87
2022-10-12T14:21:47.458Z,5.37
2022-10-12T14:22:49.667Z,5.93
2022-10-12T14:24:09.384Z,4.53
2022-10-12T14:25:18.151Z,4.80
2022-10-12T14:26:25.894Z,5.17
2022-10-12T14:27:29.701Z,3.10
2022-10-12T14:28:35.410Z,3.70
2022-10-12T14:29:45.587Z,5.40
2022-10-12T14:30:52.401Z,5.67
2022-10-12T14:31:56.802Z,3.73
2022-10-12T14:33:31.062Z,4.53
2022-10-12T14:34:37.164Z,4.23
2022-10-12T14:35:42.085Z,2.80